sensor_id;sensor_type;location;lat;lon;timestamp;temperature;humidity
49579;DHT22;35483;50.828;3.228;2022-07-05T00:02:10;17.90;63.20
49579;DHT22;35483;50.828;3.228;2022-07-05T00:04:36;17.90;63.30
49579;DHT22;35483;50.828;3.228;2022-07-05T00:07:02;17.90;63.40
49579;DHT22;35483;50.828;3.228;2022-07-05T00:09:48;17.90;63.50
49579;DHT22;35483;50.828;3.228;2022-07-05T00:12:14;17.90;63.60
49579;DHT22;35483;50.828;3.228;2022-07-05T00:14:43;17.80;63.40
49579;DHT22;35483;50.828;3.228;2022-07-05T00:17:11;17.80;63.70
49579;DHT22;35483;50.828;3.228;2022-07-05T00:19:37;17.80;63.70
49579;DHT22;35483;50.828;3.228;2022-07-05T00:22:03;17.70;63.80
49579;DHT22;35483;50.828;3.228;2022-07-05T00:24:30;17.70;63.80
49579;DHT22;35483;50.828;3.228;2022-07-05T00:26:57;17.70;63.90
49579;DHT22;35483;50.828;3.228;2022-07-05T00:29:23;17.70;64.00
49579;DHT22;35483;50.828;3.228;2022-07-05T00:31:49;17.70;63.90
49579;DHT22;35483;50.828;3.228;2022-07-05T00:34:15;17.60;63.80
49579;DHT22;35483;50.828;3.228;2022-07-05T00:36:40;17.60;63.70
49579;DHT22;35483;50.828;3.228;2022-07-05T00:39:07;17.60;63.90
49579;DHT22;35483;50.828;3.228;2022-07-05T00:41:34;17.60;64.10
49579;DHT22;35483;50.828;3.228;2022-07-05T00:44:03;17.50;64.10
49579;DHT22;35483;50.828;3.228;2022-07-05T00:46:31;17.60;64.10
49579;DHT22;35483;50.828;3.228;2022-07-05T00:49:00;17.50;64.20
49579;DHT22;35483;50.828;3.228;2022-07-05T00:51:30;17.50;64.60
49579;DHT22;35483;50.828;3.228;2022-07-05T00:53:58;17.50;64.80
49579;DHT22;35483;50.828;3.228;2022-07-05T00:56:24;17.50;64.40
49579;DHT22;35483;50.828;3.228;2022-07-05T00:58:51;17.50;64.30
49579;DHT22;35483;50.828;3.228;2022-07-05T01:01:18;17.40;64.70
49579;DHT22;35483;50.828;3.228;2022-07-05T01:03:45;17.40;64.40
49579;DHT22;35483;50.828;3.228;2022-07-05T01:06:13;17.40;64.30
49579;DHT22;35483;50.828;3.228;2022-07-05T01:08:41;17.40;64.60
49579;DHT22;35483;50.828;3.228;2022-07-05T01:11:08;17.40;64.50
49579;DHT22;35483;50.828;3.228;2022-07-05T01:13:36;17.30;64.40
49579;DHT22;35483;50.828;3.228;2022-07-05T01:16:03;17.30;64.60
49579;DHT22;35483;50.828;3.228;2022-07-05T01:18:29;17.30;64.50
49579;DHT22;35483;50.828;3.228;2022-07-05T01:20:56;17.30;64.80
49579;DHT22;35483;50.828;3.228;2022-07-05T01:23:22;17.20;64.60
49579;DHT22;35483;50.828;3.228;2022-07-05T01:25:48;17.20;64.80
49579;DHT22;35483;50.828;3.228;2022-07-05T01:28:15;17.30;64.60
49579;DHT22;35483;50.828;3.228;2022-07-05T01:30:43;17.30;64.80
49579;DHT22;35483;50.828;3.228;2022-07-05T01:33:10;17.30;64.70
49579;DHT22;35483;50.828;3.228;2022-07-05T01:35:36;17.30;64.70
49579;DHT22;35483;50.828;3.228;2022-07-05T01:38:02;17.30;64.50
49579;DHT22;35483;50.828;3.228;2022-07-05T01:40:28;17.20;64.60
49579;DHT22;35483;50.828;3.228;2022-07-05T01:42:57;17.20;64.90
49579;DHT22;35483;50.828;3.228;2022-07-05T01:45:23;17.20;64.90
49579;DHT22;35483;50.828;3.228;2022-07-05T01:48:13;17.10;64.90
49579;DHT22;35483;50.828;3.228;2022-07-05T01:50:48;17.10;65.90
49579;DHT22;35483;50.828;3.228;2022-07-05T01:53:17;17.10;66.10
49579;DHT22;35483;50.828;3.228;2022-07-05T01:55:44;17.00;68.90
49579;DHT22;35483;50.828;3.228;2022-07-05T01:58:11;16.90;65.00
49579;DHT22;35483;50.828;3.228;2022-07-05T02:00:48;16.90;65.10
49579;DHT22;35483;50.828;3.228;2022-07-05T02:03:15;16.90;67.90
49579;DHT22;35483;50.828;3.228;2022-07-05T02:05:42;16.90;65.30
49579;DHT22;35483;50.828;3.228;2022-07-05T02:08:09;16.90;65.40
49579;DHT22;35483;50.828;3.228;2022-07-05T02:10:36;16.90;65.40
49579;DHT22;35483;50.828;3.228;2022-07-05T02:13:05;16.90;65.40
49579;DHT22;35483;50.828;3.228;2022-07-05T02:15:32;16.90;65.60
49579;DHT22;35483;50.828;3.228;2022-07-05T02:17:59;16.90;65.60
49579;DHT22;35483;50.828;3.228;2022-07-05T02:20:25;16.90;65.80
49579;DHT22;35483;50.828;3.228;2022-07-05T02:22:50;16.90;65.70
49579;DHT22;35483;50.828;3.228;2022-07-05T02:25:17;16.90;65.60
49579;DHT22;35483;50.828;3.228;2022-07-05T02:27:44;16.90;65.60
49579;DHT22;35483;50.828;3.228;2022-07-05T02:30:11;17.00;65.70
49579;DHT22;35483;50.828;3.228;2022-07-05T02:32:37;17.10;65.80
49579;DHT22;35483;50.828;3.228;2022-07-05T02:35:04;17.20;65.60
49579;DHT22;35483;50.828;3.228;2022-07-05T02:37:31;17.20;65.60
49579;DHT22;35483;50.828;3.228;2022-07-05T02:39:58;17.20;65.80
49579;DHT22;35483;50.828;3.228;2022-07-05T02:42:24;17.30;65.70
49579;DHT22;35483;50.828;3.228;2022-07-05T02:44:49;17.30;65.50
49579;DHT22;35483;50.828;3.228;2022-07-05T02:47:15;17.30;65.50
49579;DHT22;35483;50.828;3.228;2022-07-05T02:49:41;17.30;65.80
49579;DHT22;35483;50.828;3.228;2022-07-05T02:52:07;17.30;65.80
49579;DHT22;35483;50.828;3.228;2022-07-05T02:54:33;17.30;65.60
49579;DHT22;35483;50.828;3.228;2022-07-05T02:57:02;17.30;65.60
49579;DHT22;35483;50.828;3.228;2022-07-05T02:59:30;17.30;65.70
49579;DHT22;35483;50.828;3.228;2022-07-05T03:01:56;17.40;65.90
49579;DHT22;35483;50.828;3.228;2022-07-05T03:04:21;17.30;65.90
49579;DHT22;35483;50.828;3.228;2022-07-05T03:06:47;17.30;65.70
49579;DHT22;35483;50.828;3.228;2022-07-05T03:09:13;17.30;65.70
49579;DHT22;35483;50.828;3.228;2022-07-05T03:11:39;17.30;65.90
49579;DHT22;35483;50.828;3.228;2022-07-05T03:14:05;17.30;66.20
49579;DHT22;35483;50.828;3.228;2022-07-05T03:16:30;17.30;66.00
49579;DHT22;35483;50.828;3.228;2022-07-05T03:18:56;17.30;65.80
49579;DHT22;35483;50.828;3.228;2022-07-05T03:21:22;17.20;65.90
49579;DHT22;35483;50.828;3.228;2022-07-05T03:23:49;17.20;66.10
49579;DHT22;35483;50.828;3.228;2022-07-05T03:26:14;17.10;66.00
49579;DHT22;35483;50.828;3.228;2022-07-05T03:28:41;17.10;66.20
49579;DHT22;35483;50.828;3.228;2022-07-05T03:31:08;17.00;66.30
49579;DHT22;35483;50.828;3.228;2022-07-05T03:33:35;17.00;66.40
49579;DHT22;35483;50.828;3.228;2022-07-05T03:36:00;17.00;66.50
49579;DHT22;35483;50.828;3.228;2022-07-05T03:38:27;17.00;66.60
49579;DHT22;35483;50.828;3.228;2022-07-05T03:40:54;17.00;66.60
49579;DHT22;35483;50.828;3.228;2022-07-05T03:43:20;17.00;66.90
49579;DHT22;35483;50.828;3.228;2022-07-05T03:45:46;17.00;66.60
49579;DHT22;35483;50.828;3.228;2022-07-05T03:48:12;17.00;66.70
49579;DHT22;35483;50.828;3.228;2022-07-05T03:50:39;17.10;66.90
49579;DHT22;35483;50.828;3.228;2022-07-05T03:53:05;17.10;66.80
49579;DHT22;35483;50.828;3.228;2022-07-05T03:55:31;17.10;67.00
49579;DHT22;35483;50.828;3.228;2022-07-05T03:57:56;17.20;66.90
49579;DHT22;35483;50.828;3.228;2022-07-05T04:00:22;17.20;66.80
49579;DHT22;35483;50.828;3.228;2022-07-05T04:02:48;17.20;66.80
49579;DHT22;35483;50.828;3.228;2022-07-05T04:05:14;17.20;66.70
49579;DHT22;35483;50.828;3.228;2022-07-05T04:07:52;17.20;66.90
49579;DHT22;35483;50.828;3.228;2022-07-05T04:10:18;17.20;69.00
49579;DHT22;35483;50.828;3.228;2022-07-05T04:12:45;17.20;67.00
49579;DHT22;35483;50.828;3.228;2022-07-05T04:15:11;17.20;67.10
49579;DHT22;35483;50.828;3.228;2022-07-05T04:17:52;17.20;67.30
49579;DHT22;35483;50.828;3.228;2022-07-05T04:20:19;17.20;71.00
49579;DHT22;35483;50.828;3.228;2022-07-05T04:22:49;17.20;67.10
49579;DHT22;35483;50.828;3.228;2022-07-05T04:25:15;17.20;67.10
49579;DHT22;35483;50.828;3.228;2022-07-05T04:27:50;17.20;67.00
49579;DHT22;35483;50.828;3.228;2022-07-05T04:30:18;17.20;68.10
49579;DHT22;35483;50.828;3.228;2022-07-05T04:32:45;17.20;67.50
49579;DHT22;35483;50.828;3.228;2022-07-05T04:35:11;17.20;67.00
49579;DHT22;35483;50.828;3.228;2022-07-05T04:37:37;17.20;67.00
49579;DHT22;35483;50.828;3.228;2022-07-05T04:40:05;17.30;67.00
49579;DHT22;35483;50.828;3.228;2022-07-05T04:42:31;17.40;67.20
49579;DHT22;35483;50.828;3.228;2022-07-05T04:44:57;17.40;67.20
49579;DHT22;35483;50.828;3.228;2022-07-05T04:47:23;17.40;67.90
49579;DHT22;35483;50.828;3.228;2022-07-05T04:49:51;17.50;67.70
49579;DHT22;35483;50.828;3.228;2022-07-05T04:52:17;17.50;67.60
49579;DHT22;35483;50.828;3.228;2022-07-05T04:54:43;17.50;67.00
49579;DHT22;35483;50.828;3.228;2022-07-05T04:57:09;17.60;67.10
49579;DHT22;35483;50.828;3.228;2022-07-05T04:59:35;17.60;67.20
49579;DHT22;35483;50.828;3.228;2022-07-05T05:02:01;17.70;67.10
49579;DHT22;35483;50.828;3.228;2022-07-05T05:04:27;17.80;67.10
49579;DHT22;35483;50.828;3.228;2022-07-05T05:06:53;17.80;66.70
49579;DHT22;35483;50.828;3.228;2022-07-05T05:09:19;17.90;66.60
49579;DHT22;35483;50.828;3.228;2022-07-05T05:11:46;18.00;66.50
49579;DHT22;35483;50.828;3.228;2022-07-05T05:14:12;18.00;66.70
49579;DHT22;35483;50.828;3.228;2022-07-05T05:16:38;18.10;66.40
49579;DHT22;35483;50.828;3.228;2022-07-05T05:19:04;18.20;66.40
49579;DHT22;35483;50.828;3.228;2022-07-05T05:21:30;18.30;66.40
49579;DHT22;35483;50.828;3.228;2022-07-05T05:23:56;18.40;66.50
49579;DHT22;35483;50.828;3.228;2022-07-05T05:26:22;18.50;66.10
49579;DHT22;35483;50.828;3.228;2022-07-05T05:28:47;18.50;66.50
49579;DHT22;35483;50.828;3.228;2022-07-05T05:31:14;18.60;66.20
49579;DHT22;35483;50.828;3.228;2022-07-05T05:33:40;18.70;66.50
49579;DHT22;35483;50.828;3.228;2022-07-05T05:36:06;18.80;66.60
49579;DHT22;35483;50.828;3.228;2022-07-05T05:38:32;18.90;66.50
49579;DHT22;35483;50.828;3.228;2022-07-05T05:40:59;19.20;66.00
49579;DHT22;35483;50.828;3.228;2022-07-05T05:43:25;19.30;66.10
49579;DHT22;35483;50.828;3.228;2022-07-05T05:45:51;19.60;65.70
49579;DHT22;35483;50.828;3.228;2022-07-05T05:48:17;19.90;65.10
49579;DHT22;35483;50.828;3.228;2022-07-05T05:50:44;19.90;65.10
49579;DHT22;35483;50.828;3.228;2022-07-05T05:53:10;19.80;65.50
49579;DHT22;35483;50.828;3.228;2022-07-05T05:55:36;19.80;65.50
49579;DHT22;35483;50.828;3.228;2022-07-05T05:58:19;19.70;65.80
49579;DHT22;35483;50.828;3.228;2022-07-05T06:00:46;19.60;68.50
49579;DHT22;35483;50.828;3.228;2022-07-05T06:03:20;19.50;65.80
49579;DHT22;35483;50.828;3.228;2022-07-05T06:05:46;19.50;66.00
49579;DHT22;35483;50.828;3.228;2022-07-05T06:08:12;19.50;66.00
49579;DHT22;35483;50.828;3.228;2022-07-05T06:10:39;20.70;64.50
49579;DHT22;35483;50.828;3.228;2022-07-05T06:13:07;22.70;60.80
49579;DHT22;35483;50.828;3.228;2022-07-05T06:15:36;24.00;58.30
49579;DHT22;35483;50.828;3.228;2022-07-05T06:18:03;24.30;58.20
49579;DHT22;35483;50.828;3.228;2022-07-05T06:20:31;24.30;57.90
49579;DHT22;35483;50.828;3.228;2022-07-05T06:22:58;23.40;59.50
49579;DHT22;35483;50.828;3.228;2022-07-05T06:25:24;22.60;61.00
49579;DHT22;35483;50.828;3.228;2022-07-05T06:30:18;21.30;63.60
49579;DHT22;35483;50.828;3.228;2022-07-05T06:32:46;20.90;64.80
49579;DHT22;35483;50.828;3.228;2022-07-05T06:35:12;20.50;65.50
49579;DHT22;35483;50.828;3.228;2022-07-05T06:37:49;20.40;65.80
49579;DHT22;35483;50.828;3.228;2022-07-05T06:40:22;20.30;67.10
49579;DHT22;35483;50.828;3.228;2022-07-05T06:42:49;20.30;66.60
49579;DHT22;35483;50.828;3.228;2022-07-05T06:45:16;20.30;66.10
49579;DHT22;35483;50.828;3.228;2022-07-05T06:47:42;20.30;66.30
49579;DHT22;35483;50.828;3.228;2022-07-05T06:50:08;20.40;66.20
49579;DHT22;35483;50.828;3.228;2022-07-05T06:52:34;20.40;66.70
49579;DHT22;35483;50.828;3.228;2022-07-05T06:55:01;20.40;66.70
49579;DHT22;35483;50.828;3.228;2022-07-05T06:57:27;20.40;66.80
49579;DHT22;35483;50.828;3.228;2022-07-05T06:59:53;20.40;67.00
49579;DHT22;35483;50.828;3.228;2022-07-05T07:02:19;20.50;66.90
49579;DHT22;35483;50.828;3.228;2022-07-05T07:04:46;20.50;67.50
49579;DHT22;35483;50.828;3.228;2022-07-05T07:07:12;20.50;67.40
49579;DHT22;35483;50.828;3.228;2022-07-05T07:10:02;20.60;67.00
49579;DHT22;35483;50.828;3.228;2022-07-05T07:12:28;20.70;67.30
49579;DHT22;35483;50.828;3.228;2022-07-05T07:14:55;20.70;67.10
49579;DHT22;35483;50.828;3.228;2022-07-05T07:17:22;20.80;67.10
49579;DHT22;35483;50.828;3.228;2022-07-05T07:19:48;21.00;67.10
49579;DHT22;35483;50.828;3.228;2022-07-05T07:22:14;21.10;67.30
49579;DHT22;35483;50.828;3.228;2022-07-05T07:24:40;21.20;66.60
49579;DHT22;35483;50.828;3.228;2022-07-05T07:27:06;21.30;67.00
49579;DHT22;35483;50.828;3.228;2022-07-05T07:29:37;21.40;66.80
49579;DHT22;35483;50.828;3.228;2022-07-05T07:32:05;21.60;66.80
49579;DHT22;35483;50.828;3.228;2022-07-05T07:34:32;21.60;66.30
49579;DHT22;35483;50.828;3.228;2022-07-05T07:36:58;21.60;66.70
49579;DHT22;35483;50.828;3.228;2022-07-05T07:39:25;21.50;66.50
49579;DHT22;35483;50.828;3.228;2022-07-05T07:41:52;21.50;66.30
49579;DHT22;35483;50.828;3.228;2022-07-05T07:44:18;21.50;66.00
49579;DHT22;35483;50.828;3.228;2022-07-05T07:46:45;21.50;66.30
49579;DHT22;35483;50.828;3.228;2022-07-05T07:49:11;21.50;66.30
49579;DHT22;35483;50.828;3.228;2022-07-05T07:51:38;21.50;66.80
49579;DHT22;35483;50.828;3.228;2022-07-05T07:54:04;21.40;66.80
49579;DHT22;35483;50.828;3.228;2022-07-05T07:56:31;21.40;66.90
49579;DHT22;35483;50.828;3.228;2022-07-05T07:58:57;21.50;66.70
49579;DHT22;35483;50.828;3.228;2022-07-05T08:01:23;21.40;67.00
49579;DHT22;35483;50.828;3.228;2022-07-05T08:03:49;21.40;66.70
49579;DHT22;35483;50.828;3.228;2022-07-05T08:06:16;21.40;66.90
49579;DHT22;35483;50.828;3.228;2022-07-05T08:08:43;21.30;67.10
49579;DHT22;35483;50.828;3.228;2022-07-05T08:11:13;21.20;67.40
49579;DHT22;35483;50.828;3.228;2022-07-05T08:13:40;21.20;67.10
49579;DHT22;35483;50.828;3.228;2022-07-05T08:16:09;21.30;67.00
49579;DHT22;35483;50.828;3.228;2022-07-05T08:18:35;21.50;66.80
49579;DHT22;35483;50.828;3.228;2022-07-05T08:21:19;21.70;66.20
49579;DHT22;35483;50.828;3.228;2022-07-05T08:23:58;21.70;65.80
49579;DHT22;35483;50.828;3.228;2022-07-05T08:26:25;21.70;65.80
49579;DHT22;35483;50.828;3.228;2022-07-05T08:28:51;21.80;65.70
49579;DHT22;35483;50.828;3.228;2022-07-05T08:31:17;21.80;65.80
49579;DHT22;35483;50.828;3.228;2022-07-05T08:33:43;21.80;65.80
49579;DHT22;35483;50.828;3.228;2022-07-05T08:36:09;21.80;65.70
49579;DHT22;35483;50.828;3.228;2022-07-05T08:38:35;21.90;65.70
49579;DHT22;35483;50.828;3.228;2022-07-05T08:41:02;22.00;65.70
49579;DHT22;35483;50.828;3.228;2022-07-05T08:43:28;22.10;65.70
49579;DHT22;35483;50.828;3.228;2022-07-05T08:45:55;22.30;65.70
49579;DHT22;35483;50.828;3.228;2022-07-05T08:48:24;22.50;65.40
49579;DHT22;35483;50.828;3.228;2022-07-05T08:50:51;22.70;65.00
49579;DHT22;35483;50.828;3.228;2022-07-05T08:53:20;23.00;64.90
49579;DHT22;35483;50.828;3.228;2022-07-05T08:55:47;23.10;64.80
49579;DHT22;35483;50.828;3.228;2022-07-05T08:58:14;23.00;65.00
49579;DHT22;35483;50.828;3.228;2022-07-05T09:00:42;22.90;64.50
49579;DHT22;35483;50.828;3.228;2022-07-05T09:03:09;22.70;65.10
49579;DHT22;35483;50.828;3.228;2022-07-05T09:05:42;22.70;65.10
49579;DHT22;35483;50.828;3.228;2022-07-05T09:08:10;22.60;64.40
49579;DHT22;35483;50.828;3.228;2022-07-05T09:10:40;22.70;64.70
49579;DHT22;35483;50.828;3.228;2022-07-05T09:13:08;22.80;64.90
49579;DHT22;35483;50.828;3.228;2022-07-05T09:15:33;22.90;64.60
49579;DHT22;35483;50.828;3.228;2022-07-05T09:17:59;23.10;64.40
49579;DHT22;35483;50.828;3.228;2022-07-05T09:20:27;23.30;64.20
49579;DHT22;35483;50.828;3.228;2022-07-05T09:22:55;23.40;64.00
49579;DHT22;35483;50.828;3.228;2022-07-05T09:25:25;23.40;63.90
49579;DHT22;35483;50.828;3.228;2022-07-05T09:28:05;23.40;63.80
49579;DHT22;35483;50.828;3.228;2022-07-05T09:30:39;23.30;64.30
49579;DHT22;35483;50.828;3.228;2022-07-05T09:35:37;23.20;61.80
49579;DHT22;35483;50.828;3.228;2022-07-05T09:38:04;23.10;64.10
49579;DHT22;35483;50.828;3.228;2022-07-05T09:40:31;23.20;63.90
49579;DHT22;35483;50.828;3.228;2022-07-05T09:43:11;23.20;63.80
49579;DHT22;35483;50.828;3.228;2022-07-05T09:45:37;23.20;63.20
49579;DHT22;35483;50.828;3.228;2022-07-05T09:48:06;23.30;63.70
49579;DHT22;35483;50.828;3.228;2022-07-05T09:50:36;23.40;63.30
49579;DHT22;35483;50.828;3.228;2022-07-05T09:53:02;23.50;63.40
49579;DHT22;35483;50.828;3.228;2022-07-05T09:55:28;23.50;63.40
49579;DHT22;35483;50.828;3.228;2022-07-05T09:57:54;23.50;63.30
49579;DHT22;35483;50.828;3.228;2022-07-05T10:00:21;23.50;63.30
49579;DHT22;35483;50.828;3.228;2022-07-05T10:02:50;23.40;63.50
49579;DHT22;35483;50.828;3.228;2022-07-05T10:05:18;23.40;63.20
49579;DHT22;35483;50.828;3.228;2022-07-05T10:07:48;23.40;62.90
49579;DHT22;35483;50.828;3.228;2022-07-05T10:10:16;23.40;63.40
49579;DHT22;35483;50.828;3.228;2022-07-05T10:12:43;23.60;63.20
49579;DHT22;35483;50.828;3.228;2022-07-05T10:15:11;23.70;62.60
49579;DHT22;35483;50.828;3.228;2022-07-05T10:17:44;23.80;63.60
49579;DHT22;35483;50.828;3.228;2022-07-05T10:22:56;24.00;62.20
49579;DHT22;35483;50.828;3.228;2022-07-05T10:25:23;23.90;62.30
49579;DHT22;35483;50.828;3.228;2022-07-05T10:27:50;23.90;62.30
49579;DHT22;35483;50.828;3.228;2022-07-05T10:30:20;23.70;62.30
49579;DHT22;35483;50.828;3.228;2022-07-05T10:32:46;23.80;62.50
49579;DHT22;35483;50.828;3.228;2022-07-05T10:35:12;23.90;62.40
49579;DHT22;35483;50.828;3.228;2022-07-05T10:37:38;24.00;61.70
49579;DHT22;35483;50.828;3.228;2022-07-05T10:40:06;24.00;61.20
49579;DHT22;35483;50.828;3.228;2022-07-05T10:42:41;23.90;61.70
49579;DHT22;35483;50.828;3.228;2022-07-05T10:48:23;23.70;61.70
49579;DHT22;35483;50.828;3.228;2022-07-05T10:53:26;23.70;59.70
49579;DHT22;35483;50.828;3.228;2022-07-05T10:58:36;23.70;59.80
49579;DHT22;35483;50.828;3.228;2022-07-05T11:06:03;23.60;61.20
49579;DHT22;35483;50.828;3.228;2022-07-05T11:08:31;23.60;61.70
49579;DHT22;35483;50.828;3.228;2022-07-05T11:11:11;23.60;61.80
49579;DHT22;35483;50.828;3.228;2022-07-05T11:13:42;23.60;61.50
49579;DHT22;35483;50.828;3.228;2022-07-05T11:16:23;23.50;61.00
49579;DHT22;35483;50.828;3.228;2022-07-05T11:18:51;23.30;61.10
49579;DHT22;35483;50.828;3.228;2022-07-05T11:21:18;23.10;61.70
49579;DHT22;35483;50.828;3.228;2022-07-05T11:23:45;23.10;61.60
49579;DHT22;35483;50.828;3.228;2022-07-05T11:26:17;23.00;62.00
49579;DHT22;35483;50.828;3.228;2022-07-05T11:28:45;23.10;61.60
49579;DHT22;35483;50.828;3.228;2022-07-05T11:31:11;23.10;61.50
49579;DHT22;35483;50.828;3.228;2022-07-05T11:33:40;23.20;61.60
49579;DHT22;35483;50.828;3.228;2022-07-05T11:36:28;23.40;60.90
49579;DHT22;35483;50.828;3.228;2022-07-05T11:39:16;23.50;61.00
49579;DHT22;35483;50.828;3.228;2022-07-05T11:41:49;23.50;58.40
49579;DHT22;35483;50.828;3.228;2022-07-05T11:44:15;23.40;61.00
49579;DHT22;35483;50.828;3.228;2022-07-05T11:46:42;23.40;61.00
49579;DHT22;35483;50.828;3.228;2022-07-05T11:49:10;23.30;61.30
49579;DHT22;35483;50.828;3.228;2022-07-05T11:51:35;23.20;61.70
49579;DHT22;35483;50.828;3.228;2022-07-05T11:54:03;23.20;61.50
49579;DHT22;35483;50.828;3.228;2022-07-05T11:56:29;23.20;61.60
49579;DHT22;35483;50.828;3.228;2022-07-05T11:58:55;23.10;61.20
49579;DHT22;35483;50.828;3.228;2022-07-05T12:01:21;23.10;61.40
49579;DHT22;35483;50.828;3.228;2022-07-05T12:03:56;23.00;61.40
49579;DHT22;35483;50.828;3.228;2022-07-05T12:06:22;23.10;61.10
49579;DHT22;35483;50.828;3.228;2022-07-05T12:09:04;23.00;61.30
49579;DHT22;35483;50.828;3.228;2022-07-05T12:11:30;23.00;61.70
49579;DHT22;35483;50.828;3.228;2022-07-05T12:14:22;23.00;61.30
49579;DHT22;35483;50.828;3.228;2022-07-05T12:16:50;23.00;61.00
49579;DHT22;35483;50.828;3.228;2022-07-05T12:19:36;22.90;61.00
49579;DHT22;35483;50.828;3.228;2022-07-05T12:22:02;22.90;60.90
49579;DHT22;35483;50.828;3.228;2022-07-05T12:24:27;22.90;61.40
49579;DHT22;35483;50.828;3.228;2022-07-05T12:26:53;22.90;61.20
49579;DHT22;35483;50.828;3.228;2022-07-05T12:29:19;23.10;61.00
49579;DHT22;35483;50.828;3.228;2022-07-05T12:32:04;23.10;61.00
49579;DHT22;35483;50.828;3.228;2022-07-05T12:34:30;23.00;58.80
49579;DHT22;35483;50.828;3.228;2022-07-05T12:36:56;22.90;61.10
49579;DHT22;35483;50.828;3.228;2022-07-05T12:39:23;22.90;61.40
49579;DHT22;35483;50.828;3.228;2022-07-05T12:41:49;23.10;61.40
49579;DHT22;35483;50.828;3.228;2022-07-05T12:44:21;23.10;61.00
49579;DHT22;35483;50.828;3.228;2022-07-05T12:46:48;23.10;60.00
49579;DHT22;35483;50.828;3.228;2022-07-05T12:49:18;23.10;61.00
49579;DHT22;35483;50.828;3.228;2022-07-05T12:51:45;23.10;61.00
49579;DHT22;35483;50.828;3.228;2022-07-05T12:54:22;23.00;59.90
49579;DHT22;35483;50.828;3.228;2022-07-05T12:57:07;22.90;59.90
49579;DHT22;35483;50.828;3.228;2022-07-05T13:00:05;23.00;60.90
49579;DHT22;35483;50.828;3.228;2022-07-05T13:02:36;23.10;58.20
49579;DHT22;35483;50.828;3.228;2022-07-05T13:05:05;23.10;60.70
49579;DHT22;35483;50.828;3.228;2022-07-05T13:07:31;23.00;60.00
49579;DHT22;35483;50.828;3.228;2022-07-05T13:10:15;22.80;61.00
49579;DHT22;35483;50.828;3.228;2022-07-05T13:12:41;22.90;60.90
49579;DHT22;35483;50.828;3.228;2022-07-05T13:15:07;23.10;60.80
49579;DHT22;35483;50.828;3.228;2022-07-05T13:17:33;23.10;60.40
49579;DHT22;35483;50.828;3.228;2022-07-05T13:19:58;23.20;60.40
49579;DHT22;35483;50.828;3.228;2022-07-05T13:22:25;23.20;60.20
49579;DHT22;35483;50.828;3.228;2022-07-05T13:24:51;23.10;60.10
49579;DHT22;35483;50.828;3.228;2022-07-05T13:27:17;23.10;60.20
49579;DHT22;35483;50.828;3.228;2022-07-05T13:29:44;23.00;60.00
49579;DHT22;35483;50.828;3.228;2022-07-05T13:32:10;23.10;60.60
49579;DHT22;35483;50.828;3.228;2022-07-05T13:34:36;23.20;60.70
49579;DHT22;35483;50.828;3.228;2022-07-05T13:37:02;23.20;60.50
49579;DHT22;35483;50.828;3.228;2022-07-05T13:39:28;23.20;60.50
49579;DHT22;35483;50.828;3.228;2022-07-05T13:41:55;23.20;60.20
49579;DHT22;35483;50.828;3.228;2022-07-05T13:44:21;23.20;59.80
49579;DHT22;35483;50.828;3.228;2022-07-05T13:46:48;23.10;60.30
49579;DHT22;35483;50.828;3.228;2022-07-05T13:49:15;22.90;60.20
49579;DHT22;35483;50.828;3.228;2022-07-05T13:51:41;22.80;60.40
49579;DHT22;35483;50.828;3.228;2022-07-05T13:54:07;22.60;60.40
49579;DHT22;35483;50.828;3.228;2022-07-05T13:56:33;22.60;60.40
49579;DHT22;35483;50.828;3.228;2022-07-05T13:59:01;22.70;60.50
49579;DHT22;35483;50.828;3.228;2022-07-05T14:01:27;22.80;60.10
49579;DHT22;35483;50.828;3.228;2022-07-05T14:03:55;22.80;60.10
49579;DHT22;35483;50.828;3.228;2022-07-05T14:06:26;22.70;60.20
49579;DHT22;35483;50.828;3.228;2022-07-05T14:08:52;22.60;60.00
49579;DHT22;35483;50.828;3.228;2022-07-05T14:11:18;22.60;60.40
49579;DHT22;35483;50.828;3.228;2022-07-05T14:13:44;22.70;60.50
49579;DHT22;35483;50.828;3.228;2022-07-05T14:16:11;22.80;60.40
49579;DHT22;35483;50.828;3.228;2022-07-05T14:18:38;22.80;59.00
49579;DHT22;35483;50.828;3.228;2022-07-05T14:21:05;22.60;59.30
49579;DHT22;35483;50.828;3.228;2022-07-05T14:23:31;22.60;60.10
49579;DHT22;35483;50.828;3.228;2022-07-05T14:26:00;22.70;59.00
49579;DHT22;35483;50.828;3.228;2022-07-05T14:28:28;22.50;59.20
49579;DHT22;35483;50.828;3.228;2022-07-05T14:30:54;22.60;59.70
49579;DHT22;35483;50.828;3.228;2022-07-05T14:33:20;22.70;59.90
49579;DHT22;35483;50.828;3.228;2022-07-05T14:35:47;22.80;59.70
49579;DHT22;35483;50.828;3.228;2022-07-05T14:38:13;22.90;59.70
49579;DHT22;35483;50.828;3.228;2022-07-05T14:40:39;23.00;59.70
49579;DHT22;35483;50.828;3.228;2022-07-05T14:43:05;23.10;59.70
49579;DHT22;35483;50.828;3.228;2022-07-05T14:45:31;23.00;59.10
49579;DHT22;35483;50.828;3.228;2022-07-05T14:47:57;22.80;59.70
49579;DHT22;35483;50.828;3.228;2022-07-05T14:50:23;22.90;59.50
49579;DHT22;35483;50.828;3.228;2022-07-05T14:52:50;22.90;59.30
49579;DHT22;35483;50.828;3.228;2022-07-05T14:55:16;22.90;59.60
49579;DHT22;35483;50.828;3.228;2022-07-05T14:57:42;22.70;59.30
49579;DHT22;35483;50.828;3.228;2022-07-05T15:00:11;22.70;59.20
49579;DHT22;35483;50.828;3.228;2022-07-05T15:02:37;22.60;59.20
49579;DHT22;35483;50.828;3.228;2022-07-05T15:05:04;22.50;59.30
49579;DHT22;35483;50.828;3.228;2022-07-05T15:07:31;22.50;59.00
49579;DHT22;35483;50.828;3.228;2022-07-05T15:09:57;22.40;58.90
49579;DHT22;35483;50.828;3.228;2022-07-05T15:12:23;22.50;59.50
49579;DHT22;35483;50.828;3.228;2022-07-05T15:14:49;22.40;59.30
49579;DHT22;35483;50.828;3.228;2022-07-05T15:17:15;22.40;59.00
49579;DHT22;35483;50.828;3.228;2022-07-05T15:19:41;22.30;58.50
49579;DHT22;35483;50.828;3.228;2022-07-05T15:22:08;22.30;58.90
49579;DHT22;35483;50.828;3.228;2022-07-05T15:24:35;22.10;58.20
49579;DHT22;35483;50.828;3.228;2022-07-05T15:27:01;22.10;58.70
49579;DHT22;35483;50.828;3.228;2022-07-05T15:29:28;22.10;59.00
49579;DHT22;35483;50.828;3.228;2022-07-05T15:31:56;22.10;56.00
49579;DHT22;35483;50.828;3.228;2022-07-05T15:34:23;22.00;58.90
49579;DHT22;35483;50.828;3.228;2022-07-05T15:36:52;21.90;58.40
49579;DHT22;35483;50.828;3.228;2022-07-05T15:39:18;22.00;57.10
49579;DHT22;35483;50.828;3.228;2022-07-05T15:41:44;22.00;58.80
49579;DHT22;35483;50.828;3.228;2022-07-05T15:44:10;22.10;57.10
49579;DHT22;35483;50.828;3.228;2022-07-05T15:46:36;22.00;58.20
49579;DHT22;35483;50.828;3.228;2022-07-05T15:49:21;22.10;58.80
49579;DHT22;35483;50.828;3.228;2022-07-05T15:51:46;22.00;53.40
49579;DHT22;35483;50.828;3.228;2022-07-05T15:54:12;21.90;58.30
49579;DHT22;35483;50.828;3.228;2022-07-05T15:56:38;21.80;58.50